Tiempo atmosférico en la estación meteorológica de Castellón de la Plana, Almazora, Castelló/Castellón (35 m.)



Fecha
DESCASC
Temp. máxima en grados centígrados (hora)
DESCASC
Temp. mínima en grados centígrados (hora)
DESCASC
Temp. media en grados centígrados
DESCASC
Racha de viento máxima en m/sg (hora)
DESCASC
Velocidad máxima media en intervalos de 10 minutos(hora)
DESCASC
Precipitaciones diarias en mm
DESCASC
Precipitaciones de 00:00 a 06:00 en mm
DESCASC
Precipitaciones de 06:00 a 12:00 en mm
DESCASC
Precipitaciones de 12:00 a 18:00 en mm
DESCASC
Precipitaciones de 18:00 a 24:00 en mm
DESCASC

Gráficas

Temp. máximas Temp. mínimas Temp. medias Precipitaciones Rachas de viento máximas Velocidades máximas media en intervalos de 10 minutos

Datos horarios

Fecha y hora oficial Temperatura (ºC) Velocidad del viento (km/h) Dirección del viento Racha (km/h) Dirección de racha Precipitación (mm) Presión (hPa) Tendencia (hPa) Humedad (%)
2019-06-20 23:00:00 21.7 4 Este 9 Este 0 1007.8 1.3 80
2019-06-20 22:00:00 21.6 4 Nordeste 16 Este 0 1007.3 1.3 80
2019-06-20 21:00:00 22.4 6 Este 21 Este 0 1006.9 0.3 75
2019-06-20 20:00:00 23.2 8 Este 20 Este 0 1006.5 -0.4 70
2019-06-20 19:00:00 24 9 Este 21 Este 0 1006 -1.6 66
2019-06-20 18:00:00 24.9 9 Este 25 Sudeste 0 1006.6 -1.5 63
2019-06-20 17:00:00 24.9 17 Este 28 Este 0 1006.9 -1.2 63
2019-06-20 16:00:00 25.6 14 Este 28 Sudeste 0 1007.6 -1 59
2019-06-20 15:00:00 26.1 13 Este 31 Este 0 1008.1 -0.3 55
2019-06-20 14:00:00 27 10 Este 30 Este 0 1008.1 0.1 54
2019-06-20 13:00:00 25.7 10 Este 27 Sudeste 0 1008.6 0.9 58
2019-06-20 12:00:00 25.4 15 Este 29 Este 0 1008.4 0.8 63
2019-06-20 11:00:00 25.3 13 Este 26 Este 0 1008 0.9 63
2019-06-20 10:00:00 24.4 9 Este 25 Este 0 1007.7 0.6 66
2019-06-20 09:00:00 23.1 4 Sudeste 10 Sudeste 0 1007.6 0.7 67
2019-06-20 08:00:00 19.8 4 Noroeste 10 Noroeste 0 1007.1 0.6 78
2019-06-20 07:00:00 18.6 4 Noroeste 10 Noroeste 0 1007.1 0.8 75
2019-06-20 06:00:00 19.3 6 Noroeste 14 Norte 0 1006.9 0.5 73
2019-06-20 05:00:00 20.4 7 Nordeste 13 Este 0 1006.5 0 87
2019-06-20 04:00:00 20.8 5 Este 12 Este 0 1006.3 -0.2 87
2019-06-20 03:00:00 21.3 4 Nordeste 9 Nordeste 0 1006.4 0 85
2019-06-20 02:00:00 21.7 6 Nordeste 9 Norte 0 1006.5 0.1 80
2019-06-20 01:00:00 21.8 3 Nordeste 8 Este 0 1006.5 0.5 74
2019-06-20 00:00:00 22.6 0 Calma 8 Norte 0 1006.4 0.6 64
2019-06-19 23:00:00 23.7 4 Noroeste 8 Norte 0 1006.4 0.6 59
2019-06-19 22:00:00 24.4 5 Nordeste 8 Nordeste 0 1006 0.2 51
2019-06-19 21:00:00 25.4 3 Este 10 Este 0 1005.8 -0.1 47
2019-06-19 20:00:00 26 5 Este 11 Este 0 1005.8 -0.5 48
2019-06-19 19:00:00 26.1 6 Sudeste 18 Sudeste 0 1005.8 -0.7 52
2019-06-19 18:00:00 26.9 9 Sudeste 20 Sur 0 1005.9 -1.1 56
2019-06-19 17:00:00 27.2 11 Sudeste 21 Sudeste 0 1006.3 -1.1 55
2019-06-19 16:00:00 27.6 12 Este 21 Sudeste 0 1006.5 -1.3 50
2019-06-19 15:00:00 27.7 11 Sudeste 20 Nordeste 0 1007 -0.9 52
2019-06-19 14:00:00 27.4 11 Este 21 Sudeste 0 1007.4 -0.5 52
2019-06-19 13:00:00 26.8 11 Este 21 Este 0 1007.8 0 54
2019-06-19 12:00:00 26.6 10 Este 18 Este 0 1007.9 0.1 53
2019-06-19 11:00:00 26 9 Este 18 Este 0 1007.9 0 54
2019-06-19 10:00:00 24.7 4 Sudeste 13 Noroeste 0 1007.8 0.3 52
2019-06-19 09:00:00 21.5 8 Oeste 13 Noroeste 0 1007.8 0.8 66
2019-06-19 08:00:00 18 6 Noroeste 11 Oeste 0 1007.9 1.5 64
2019-06-19 07:00:00 16.8 4 Noroeste 8 Noroeste 0 1007.5 0.8 66
2019-06-19 06:00:00 17 4 Noroeste 9 Noroeste 0 1007 -0.1 65
2019-06-19 05:00:00 17.3 5 Noroeste 10 Noroeste 0 1006.4 -1.3 67
2019-06-19 04:00:00 17.6 6 Noroeste 9 Oeste 0 1006.7 -1.4 66
2019-06-19 03:00:00 18.2 5 Noroeste 8 Noroeste 0 1007.1 -1.4 64
2019-06-19 02:00:00 19.4 4 Noroeste 7 Noroeste 0 1007.7 -0.7 62
2019-06-19 01:00:00 20.8 3 Este 6 Sudeste 0 1008.1 0.3 70
2019-06-19 00:00:00 20.9 3 Este 6 Nordeste 0 1008.5 0.8 63
2019-06-18 23:00:00 21.6 5 Este 10 Este 0 1008.4 0.6 60
2019-06-18 22:00:00 22.5 6 Este 12 Sudeste 0 1007.8 0.1 56
2019-06-18 21:00:00 23.1 6 Este 12 Este 0 1007.7 -0.4 51
2019-06-18 20:00:00 24.1 7 Sudeste 15 Sudeste 0 1007.8 -0.5 54
2019-06-18 19:00:00 24.8 8 Este 17 Sudeste 0 1007.7 -1.1 54
2019-06-18 18:00:00 26.2 9 Sur 21 Este 0 1008.1 -0.9 47
2019-06-18 17:00:00 26.5 10 Sudeste 23 Este 0 1008.3 -0.9 47
2019-06-18 16:00:00 27.3 12 Sudeste 26 Sudeste 0 1008.8 -0.7 48
2019-06-18 15:00:00 28.3 13 Sudeste 27 Sudeste 0 1009 -0.5 40
2019-06-18 14:00:00 27.9 12 Sudeste 22 Sur 0 1009.2 -0.3 44
2019-06-18 13:00:00 27.6 11 Sudeste 23 Este 0 1009.5 -0.2 52
2019-06-18 12:00:00 26.4 10 Sudeste 21 Este 0 1009.5 -0.1 52
2019-06-18 11:00:00 26.7 8 Sur 15 Sudeste 0 1009.5 0.1 56
2019-06-18 10:00:00 24.4 5 Sudeste 9 Sudeste 0 1009.7 0.6 58
2019-06-18 09:00:00 21.6 2 Norte 6 Oeste 0 1009.6 0.5 73
2019-06-18 08:00:00 18.7 5 Noroeste 8 Noroeste 0 1009.4 0.4 66
2019-06-18 07:00:00 18 4 Noroeste 7 Noroeste 0 1009.1 -0.2 68
2019-06-18 06:00:00 18.1 5 Noroeste 8 Noroeste 0 1009.1 -0.5 65
2019-06-18 05:00:00 18.3 4 Noroeste 8 Noroeste 0 1009 -1.2 63
2019-06-18 04:00:00 18.6 4 Noroeste 6 Noroeste 0 1009.3 -1.5 58
2019-06-18 03:00:00 19 2 Sudoeste 12 Noroeste 0 1009.6 -1.2 58
2019-06-18 02:00:00 19.2 9 Oeste 14 Noroeste 0 1010.2 -0.5 59
2019-06-18 01:00:00 19.8 6 Noroeste 10 Noroeste 0 1010.8 0.6 61
2019-06-18 00:00:00 21.2 2 Norte 4 Norte 0 1010.8 0.8 62
2019-06-17 23:00:00 21.7 3 Nordeste 6 Nordeste 0 1010.7 0.9 64
2019-06-17 22:00:00 22.3 4 Este 9 Este 0 1010.2 0.5 61
2019-06-17 21:00:00 23.1 3 Este 13 Sudeste 0 1010 0 58
2019-06-17 20:00:00 24.2 8 Este 19 Este 0 1009.8 -0.3 55
2019-06-17 19:00:00 25.8 9 Sur 20 Sur 0 1009.7 -0.9 49
2019-06-17 18:00:00 26.6 10 Sudeste 21 Sudeste 0 1010 -0.7 47
2019-06-17 17:00:00 26.9 12 Sudeste 25 Sudeste 0 1010.1 -0.9 45
2019-06-17 16:00:00 27.2 11 Sudeste 25 Este 0 1010.6 -0.8 46
2019-06-17 15:00:00 25.4 14 Este 25 Este 0 1010.7 -0.6 55
2019-06-17 14:00:00 25.5 13 Este 22 Sudeste 0 1011 -0.1 59
2019-06-17 13:00:00 25.9 10 Sudeste 24 Sudeste 0 1011.4 0.2 57
2019-06-17 12:00:00 25.5 11 Este 20 Sudeste 0 1011.3 0.1 55
2019-06-17 11:00:00 25.9 9 Sudeste 17 Este 0 1011.1 -0.1 52
2019-06-17 10:00:00 24 4 Nordeste 11 Este 0 1011.2 0.3 55
2019-06-17 09:00:00 21.6 3 Norte 6 Noroeste 0 1011.2 0.4 66
2019-06-17 08:00:00 17.9 4 Noroeste 7 Noroeste 0 1011.2 0.1 82
2019-06-17 07:00:00 16.8 3 Noroeste 5 Noroeste 0 1010.9 -0.5 84
2019-06-17 06:00:00 17.4 3 Sur 6 Sudeste 0 1010.8 -0.8 87
2019-06-17 05:00:00 17.8 3 Sur 9 Sudoeste 0 1011.1 -1.1 88
2019-06-17 04:00:00 17.9 3 Noroeste 6 Noroeste 0 1011.4 -1.2 86
2019-06-17 03:00:00 18.6 2 Noroeste 10 Oeste 0 1011.6 -1.2 84
2019-06-17 02:00:00 18.7 6 Sudoeste 9 Sudoeste 0 1012.2 -0.9 85
2019-06-17 01:00:00 19 3 Sudoeste 8 Sudoeste 0 1012.6 -0.3 84
2019-06-17 00:00:00 19.6 3 Noroeste 7 Noroeste 0 1012.8 0.2 81
2019-06-16 23:00:00 19.8 3 Sudoeste 9 Sur 0 1013.1 0.8 81
2019-06-16 22:00:00 20.2 5 Sur 15 Sur 0 1012.9 0.1 77
2019-06-16 21:00:00 21.1 9 Sur 13 Sur 0 1012.6 -0.5 71
2019-06-16 20:00:00 22 6 Sudeste 14 Sudeste 0 1012.3 -0.8 66
2019-06-16 19:00:00 23.1 8 Sudeste 19 Sudoeste 0 1012.8 -1.2 60
2019-06-16 18:00:00 23.6 9 Sur 19 Sudeste 0 1013.1 -1.5 57
2019-06-16 17:00:00 23.8 9 Sudeste 22 Sudeste 0 1013.1 -2 57
2019-06-16 16:00:00 23.6 14 Este 23 Este 0 1014 -1.4 56
2019-06-16 15:00:00 24.2 10 Sudeste 23 Sudeste 0 1014.6 -1 53
2019-06-16 14:00:00 24.8 11 Sudeste 23 Este 0 1015.1 -0.4 48
2019-06-16 13:00:00 25.9 12 Sudeste 26 Sudeste 0 1015.4 -0.1 42
2019-06-16 12:00:00 25.4 9 Este 22 Este 0 1015.6 0.4 45
2019-06-16 11:00:00 24.6 8 Sudeste 16 Este 0 1015.5 0.7 46
2019-06-16 10:00:00 23 5 Este 25 Nordeste 0 1015.5 1 58
2019-06-16 09:00:00 20.7 4 Noroeste 13 Oeste 0 1015.2 0.8 67
2019-06-16 08:00:00 18.2 8 Oeste 13 Noroeste 0 1014.8 0.4 71
2019-06-16 07:00:00 17.1 7 Oeste 12 Noroeste 0 1014.5 -0.1 76
2019-06-16 06:00:00 17.4 4 Noroeste 11 Noroeste 0 1014.4 -0.3 77
2019-06-16 05:00:00 18.7 5 Noroeste 9 Oeste 0 1014.4 -0.2 74
2019-06-16 04:00:00 19.7 4 Noroeste 9 Norte 0 1014.6 0.3 71
2019-06-16 03:00:00 20 5 Norte 21 Nordeste 0 1014.7 0.9 64
2019-06-16 02:00:00 20.2 7 Nordeste 15 Nordeste 0 1014.6 1.4 69
2019-06-16 01:00:00 18.8 2 Norte 12 Oeste 0 1014.3 2.1 55
2019-06-16 00:00:00 20.1 5 Oeste 9 Noroeste 0 1013.8 2.2 49
2019-06-15 23:00:00 21 3 Noroeste 6 Noroeste 0 1013.2 2.1 45
2019-06-15 22:00:00 21.8 4 Sur 9 Sur 0 1012.2 1.4 41
2019-06-15 21:00:00 23.5 5 Sur 12 Sur 0 1011.6 0.9 39
2019-06-15 20:00:00 24.6 6 Sudeste 15 Sudeste 0 1011.1 0.4 37
2019-06-15 19:00:00 25.3 9 Sur 19 Sudeste 0 1010.8 0 37
2019-06-15 18:00:00 24.8 10 Este 22 Este 0 1010.7 -0.4 42
2019-06-15 17:00:00 25.7 13 Sudeste 23 Este 0 1010.7 -0.6 42
2019-06-15 16:00:00 26.1 12 Sudeste 24 Sudeste 0 1010.8 -0.9 43
2019-06-15 15:00:00 26.4 11 Sudeste 26 Sudeste 0 1011.1 -0.4 41
2019-06-15 14:00:00 25.3 16 Este 28 Sudeste 0 1011.3 -0.2 45
2019-06-15 13:00:00 25.7 14 Sudeste 25 Este 0 1011.7 0.5 51
2019-06-15 12:00:00 24.5 13 Sudeste 22 Este 0 1011.5 1.1 54
2019-06-15 11:00:00 24.2 11 Sudeste 23 Este 0 1011.5 1.9 61
2019-06-15 10:00:00 23.6 8 Sudeste 17 Este 0 1011.2 2.5 64
2019-06-15 09:00:00 21.9 6 Este 12 Nordeste 0 1010.4 2.3 72
2019-06-15 08:00:00 19 6 Nordeste 9 Nordeste 0 1009.6 2 85
2019-06-15 07:00:00 18.1 0 Calma 9 Norte 0 1008.7 1.2 57
2019-06-15 06:00:00 18.4 4 Noroeste 11 Norte 0 1008.1 0.9 55
2019-06-15 05:00:00 17.8 5 Noroeste 9 Noroeste 0 1007.6 0.4 67
2019-06-15 04:00:00 18 5 Oeste 10 Oeste 0 1007.5 0.4 72
2019-06-15 03:00:00 18.8 4 Oeste 9 Noroeste 0 1007.2 0.8 83
2019-06-15 02:00:00 20 4 Norte 7 Este 0 1007.2 0.9 87
2019-06-15 01:00:00 20.6 5 Este 10 Este 0 1007.1 1.5 87
2019-06-15 00:00:00 21.3 4 Este 9 Sudeste 0 1006.4 1.3 83
2019-06-14 23:00:00 22.2 4 Nordeste 8 Nordeste 0 1006.3 1.6 72
2019-06-14 22:00:00 22.8 2 Sudeste 10 Este 0 1005.6 1.1 69
2019-06-14 21:00:00 24.7 3 Sudeste 10 Sudeste 0 1005.1 0.3 56
2019-06-14 20:00:00 25.9 6 Sur 15 Sudeste 0 1004.7 -0.2 53
2019-06-14 19:00:00 26.7 9 Sur 18 Sudeste 0 1004.5 -0.6 48
2019-06-14 18:00:00 26.7 12 Sudeste 23 Este 0 1004.8 -0.4 45
2019-06-14 17:00:00 27 11 Sudeste 22 Este 0 1004.9 -0.6 43
2019-06-14 16:00:00 27.3 10 Sudeste 22 Sudeste 0 1005.1 -0.2 42
2019-06-14 15:00:00 26.8 12 Sudeste 22 Este 0 1005.2 -0.1 44
2019-06-14 14:00:00 27.2 13 Sudeste 24 Sudeste 0 1005.5 1 38
2019-06-14 13:00:00 27.2 12 Sudeste 24 Sur 0 1005.3 0.1 38
2019-06-14 12:00:00 26.6 9 Sudeste 19 Sur 0 1005.3 -0.2 41
2019-06-14 11:00:00 25.5 4 Norte 10 Sur 0 1004.5 -0.4 40
2019-06-14 10:00:00 23.4 5 Sur 13 Sur 0 1005.2 2.2 45
2019-06-14 09:00:00 19.7 7 Sur 15 Oeste 0 1005.5 0.9 53
2019-06-14 08:00:00 18.9 6 Oeste 21 Oeste 0 1004.9 0.6 47
2019-06-14 07:00:00 17.8 9 Noroeste 19 Noroeste 0 1003 -0.6 53
2019-06-14 06:00:00 18.4 9 Oeste 17 Oeste 0 1004.6 0.8 58
2019-06-14 05:00:00 17.6 6 Sudoeste 9 Sudoeste 0 1004.3 -0.7 50
2019-06-14 04:00:00 18 5 Noroeste 13 Oeste 0 1003.6 -2.5 46
2019-06-14 03:00:00 18.2 7 Oeste 15 Oeste 0 1003.8 -3.1 46
2019-06-14 02:00:00 18.2 8 Noroeste 17 Norte 0 1005 -1.6 44
2019-06-14 01:00:00 18.9 6 Norte 15 Norte 0 1006.1 -0.2 34
2019-06-14 00:00:00 18.8 5 Noroeste 8 Nordeste 0 1006.9 1 44
2019-06-13 23:00:00 19.6 5 Nordeste 13 Nordeste 0 1006.6 0.8 41
2019-06-13 22:00:00 19.6 5 Nordeste 14 Este 0 1006.3 0.6 52
2019-06-13 21:00:00 20.5 8 Este 27 Este 0 1005.9 -0.2 56
2019-06-13 20:00:00 21.3 9 Este 27 Nordeste 0 1005.8 -0.6 61
2019-06-13 19:00:00 22.1 12 Este 28 Este 0 1005.7 -1.3 59
2019-06-13 18:00:00 22.2 14 Este 29 Este 0 1006.1 -1.3 63
2019-06-13 17:00:00 23 10 Este 27 Este 0 1006.4 -1.7 57
2019-06-13 16:00:00 23.3 12 Este 29 Este 0 1007 -1.4 59
2019-06-13 15:00:00 23.1 15 Este 30 Este 0 1007.4 -1.2 61
2019-06-13 14:00:00 21.9 9 Este 26 Este 0 1008.1 -0.9 67
2019-06-13 13:00:00 22.9 13 Este 23 Este 0 1008.4 -0.5 61
2019-06-13 12:00:00 23.4 9 Este 17 Este 0 1008.6 -0.1 56
2019-06-13 11:00:00 21.6 5 Nordeste 11 Nordeste 0 1009 0.7 62
2019-06-13 10:00:00 19.9 3 Noroeste 7 Oeste 0 1008.9 0.8 61
2019-06-13 09:00:00 19.2 4 Noroeste 8 Noroeste 0 1008.7 0.7 51
2019-06-13 08:00:00 18.3 3 Oeste 9 Norte 0 1008.3 0.5 55
2019-06-13 07:00:00 17.7 4 Noroeste 9 Noroeste 0 1008.1 -0.3 54
2019-06-13 06:00:00 17.9 6 Noroeste 15 Oeste 0 1008 -0.7 52
2019-06-13 05:00:00 18 6 Oeste 11 Oeste 0 1007.8 -1.2 52
2019-06-13 04:00:00 18 6 Noroeste 12 Oeste 0 1008.4 -1 52
2019-06-13 03:00:00 17.7 4 Noroeste 13 Oeste 0 1008.7 -0.9 54
2019-06-13 02:00:00 17.5 7 Oeste 14 Oeste 0 1009 -0.8 57
2019-06-13 01:00:00 17.2 5 Noroeste 11 Noroeste 0 1009.4 0.3 61
2019-06-13 00:00:00 17.5 4 Noroeste 9 Noroeste 0 1009.6 0.7 61
2019-06-12 23:00:00 18.1 2 Nordeste 7 Este 0 1009.8 1.1 61
2019-06-12 22:00:00 18.3 3 Este 11 Sudeste 0 1009.1 0.7 60
2019-06-12 21:00:00 19.1 8 Sudeste 17 Este 0 1008.9 0 56
2019-06-12 20:00:00 19.9 10 Este 22 Este 0 1008.7 -0.3 51
2019-06-12 19:00:00 20.4 10 Sudeste 25 Sudeste 0 1008.4 -0.7 50
2019-06-12 18:00:00 21.4 11 Este 30 Sudeste 0 1008.9 -0.5 42
2019-06-12 17:00:00 21.9 13 Sudeste 29 Sudeste 0 1009 -0.7 37
2019-06-12 16:00:00 22.6 12 Sudeste 30 Sudeste 0 1009.1 -1 40
2019-06-12 15:00:00 23.2 13 Sudeste 24 Sudeste 0 1009.4 -0.8 43
2019-06-12 14:00:00 23.7 9 Sudeste 25 Sur 0 1009.7 -0.6 37
2019-06-12 13:00:00 22.8 13 Sudeste 28 Este 0 1010.1 -0.4 39
2019-06-12 12:00:00 22.1 14 Sudeste 22 Este 0 1010.2 -0.4 36
2019-06-12 11:00:00 22.3 8 Sudeste 15 Sudeste 0 1010.3 0.1 29
2019-06-12 10:00:00 19.8 4 Nordeste 15 Noroeste 0 1010.5 0.9 33
2019-06-12 09:00:00 17.1 6 Noroeste 19 Oeste 0 1010.6 1.6 41
2019-06-12 08:00:00 13.1 9 Oeste 21 Oeste 0 1010.2 1.5 54
2019-06-12 07:00:00 11.9 13 Oeste 21 Oeste 0 1009.6 0.8 57
2019-06-12 06:00:00 12.1 8 Oeste 17 Noroeste 0 1009 -0.1 59
2019-06-12 05:00:00 12.3 7 Noroeste 14 Noroeste 0 1008.7 -0.9 60
2019-06-12 04:00:00 12.4 7 Noroeste 17 Oeste 0 1008.8 -0.9 63
2019-06-12 03:00:00 13.3 7 Oeste 13 Noroeste 0 1009.1 -0.4 62
2019-06-12 02:00:00 13.7 5 Oeste 13 Noroeste 0 1009.6 0.4 62
2019-06-12 01:00:00 14.4 5 Noroeste 10 Noroeste 0 1009.7 1.4 59
2019-06-12 00:00:00 16 4 Noroeste 8 Noroeste 0 1009.5 1.8 55
2019-06-11 23:00:00 17.3 3 Este 9 Sudeste 0 1009.2 1.9 60
2019-06-11 22:00:00 18.4 4 Este 12 Este 0 1008.3 1.5 47
2019-06-11 21:00:00 19.9 7 Este 15 Nordeste 0 1007.7 1.2 41
2019-06-11 20:00:00 19.8 11 Nordeste 27 Nordeste 0 1007.3 1.2 33
2019-06-11 19:00:00 19.7 14 Norte 32 Nordeste 0 1006.8 0.8 35
2019-06-11 18:00:00 20 17 Norte 31 Nordeste 0 1006.5 1 36
2019-06-11 17:00:00 20.4 13 Norte 38 Norte 0 1006.1 1.3 39
2019-06-11 16:00:00 19.5 20 Norte 33 Norte 0 1006 1.3 42
2019-06-11 15:00:00 21.2 18 Norte 30 Norte 0 1005.5 0.7 39
2019-06-11 14:00:00 23.1 14 Este 26 Sudeste 0 1004.8 -0.2 35
2019-06-11 13:00:00 23 8 Este 24 Este 0 1004.7 -0.2 35
2019-06-11 12:00:00 22.9 8 Nordeste 17 Este 0 1004.8 -0.2 34
2019-06-11 11:00:00 21.7 7 Este 13 Sudeste 0 1005 0.1 39
2019-06-11 10:00:00 21.3 5 Nordeste 17 Norte 0 1004.9 0.1 37
2019-06-11 09:00:00 19.8 10 Noroeste 18 Noroeste 0 1005 0.3 38
2019-06-11 08:00:00 19.3 6 Noroeste 12 Noroeste 0 1004.9 0 44
2019-06-11 07:00:00 18.4 4 Norte 9 Nordeste 0 1004.8 -0.6 59
2019-06-11 06:00:00 17.6 4 Noroeste 8 Oeste 0 1004.7 -1.4 68
2019-06-11 05:00:00 17.3 5 Noroeste 9 Noroeste 0 1004.9 -1.6 69
2019-06-11 04:00:00 18.2 3 Norte 6 Norte 0 1005.4 -1.6 71
2019-06-11 03:00:00 17.7 4 Norte 7 Norte 0 1006.1 -1.4 70
2019-06-11 02:00:00 18 4 Oeste 9 Sudoeste 0 1006.5 -1.1 69
2019-06-11 01:00:00 18.9 4 Noroeste 8 Noroeste 0 1007 0 64
2019-06-11 00:00:00 19.8 3 Noroeste 9 Noroeste 0 1007.5 1 66
2019-06-10 23:00:00 20 3 Sudoeste 5 Sudoeste 0 1007.6 1.2 70
2019-06-10 22:00:00 20.6 3 Sudoeste 7 Sur 0 1007 0.6 66
2019-06-10 21:00:00 21.8 4 Sur 14 Sur 0 1006.5 0.1 61
2019-06-10 20:00:00 22.9 6 Sur 15 Este 0 1006.4 0.1 60
2019-06-10 19:00:00 23.3 9 Este 18 Este 0 1006.4 -0.5 55
2019-06-10 18:00:00 25.1 9 Sudeste 23 Sudeste 0 1006.4 -0.8 48
2019-06-10 17:00:00 26.4 12 Sudeste 26 Sudeste 0 1006.3 -1.4 44
2019-06-10 16:00:00 27.1 13 Sudeste 24 Sur 0 1006.9 -1.2 38
2019-06-10 15:00:00 27.3 13 Sur 27 Sur 0 1007.2 -1.2 39
2019-06-10 14:00:00 27.8 15 Sur 26 Sur 0 1007.7 -0.8 41
2019-06-10 13:00:00 27 14 Sur 29 Sur 0 1008.1 -0.7 42
2019-06-10 12:00:00 27.4 13 Sur 26 Sur 0 1008.4 -0.5 39
2019-06-10 11:00:00 25.5 6 Sudoeste 15 Oeste 0 1008.5 -0.2 37
2019-06-10 10:00:00 23 8 Noroeste 18 Noroeste 0 1008.8 0.8 42
2019-06-10 09:00:00 19.9 7 Oeste 13 Noroeste 0 1008.9 1.2 52
2019-06-10 08:00:00 17.1 4 Noroeste 13 Noroeste 0 1008.7 1.2 58
2019-06-10 07:00:00 16 5 Noroeste 9 Oeste 0 1008 0.7 59
2019-06-10 06:00:00 16 5 Oeste 9 Noroeste 0 1007.7 0.4 58
2019-06-10 05:00:00 16.2 4 Noroeste 12 Noroeste 0 1007.5 0 54
2019-06-10 04:00:00 16.4 5 Noroeste 11 Noroeste 0 1007.3 -0.6 55
2019-06-10 03:00:00 16.6 7 Noroeste 21 Noroeste 0 1007.3 -0.9 51
2019-06-10 02:00:00 16.9 9 Oeste 15 Noroeste 0 1007.5 -0.8 51
2019-06-10 01:00:00 17.1 8 Oeste 12 Oeste 0 1007.9 0 48
2019-06-10 00:00:00 18.1 6 Noroeste 10 Noroeste 0 1008.2 0.6 44
2019-06-09 23:00:00 19.2 3 Noroeste 5 Noroeste 0 1008.3 0.8 49
2019-06-09 22:00:00 20.2 0 Calma 10 Sur 0 1007.9 0.7 51
2019-06-09 21:00:00 21.9 5 Sur 13 Sur 0 1007.6 -0.3 42
2019-06-09 20:00:00 24.1 9 Sur 14 Sur 0 1007.5 -0.2 26
2019-06-09 19:00:00 23.8 7 Este 13 Este 0 1007.2 -1.1 29
2019-06-09 18:00:00 22.9 5 Este 14 Este 0 1007.9 -1 32
2019-06-09 17:00:00 23 8 Sudeste 13 Este 0 1007.7 -2.1 30
2019-06-09 16:00:00 23.9 6 Sudeste 12 Sudeste 0 1008.3 -2.1 31
2019-06-09 15:00:00 23.4 4 Sur 14 Sur 0 1008.9 -1.9 32
2019-06-09 14:00:00 23.1 6 Sur 13 Sudeste 0 1009.8 -0.7 35
2019-06-09 13:00:00 23.6 11 Sudeste 17 Sudeste 0 1010.4 -0.1 40
2019-06-09 12:00:00 24.1 5 Sur 11 Este 0 1010.8 0.1 29
2019-06-09 11:00:00 22.7 3 Sudoeste 12 Nordeste 0 1010.5 -0.1 33
2019-06-09 10:00:00 21.9 5 Noroeste 15 Oeste 0 1010.5 -0.3 34
2019-06-09 09:00:00 19.7 9 Oeste 17 Oeste 0 1010.7 -0.3 41
2019-06-09 08:00:00 18.6 8 Oeste 16 Oeste 0 1010.6 -0.7 44
2019-06-09 07:00:00 18.6 9 Oeste 24 Oeste 0 1010.8 -1.1 45
2019-06-09 06:00:00 18.1 10 Oeste 20 Oeste 0 1011 -2 47
2019-06-09 05:00:00 18.2 11 Oeste 19 Noroeste 0 1011.3 -2.2 48
2019-06-09 04:00:00 18.2 6 Noroeste 20 Oeste 0 1011.9 -2.1 47
2019-06-09 03:00:00 18.4 8 Noroeste 18 Oeste 0 1013 -1.4 46
2019-06-09 02:00:00 18.7 6 Noroeste 14 Oeste 0 1013.5 -1.6 43
2019-06-09 01:00:00 19.2 5 Noroeste 11 Oeste 0 1014 -1.1 42
2019-06-09 00:00:00 19.6 4 Noroeste 9 Noroeste 0 1014.4 -0.7 43
2019-06-08 23:00:00 20.4 5 Norte 12 Norte 0 1015.1 -0.1 39
2019-06-08 22:00:00 20.1 4 Nordeste 16 Este 0 1015.1 0 46
2019-06-08 21:00:00 20.6 6 Nordeste 21 Este 0 1015.1 -0.6 51
2019-06-08 20:00:00 21.1 8 Este 21 Este 0 1015.2 -0.9 49
2019-06-08 19:00:00 21.5 12 Este 24 Este 0 1015.1 -1.6 49
2019-06-08 18:00:00 21.8 11 Nordeste 31 Sudeste 0 1015.7 -1.7 46
2019-06-08 17:00:00 22.6 10 Nordeste 26 Nordeste 0 1016.1 -1.8 46
2019-06-08 16:00:00 22.3 12 Nordeste 28 Este 0 1016.7 -1.5 47
2019-06-08 15:00:00 23.3 12 Este 30 Nordeste 0 1017.4 -0.6 44
2019-06-08 14:00:00 23.2 9 Nordeste 26 Este 0 1017.9 0 47
2019-06-08 13:00:00 22.8 9 Nordeste 29 Este 0 1018.2 0.5 47
2019-06-08 12:00:00 22.7 13 Nordeste 31 Este 0 1018 0.6 47
2019-06-08 11:00:00 22.8 13 Este 29 Este 0 1017.9 0.7 45
2019-06-08 10:00:00 21.9 11 Nordeste 27 Nordeste 0 1017.7 1.1 48
2019-06-08 09:00:00 21.2 13 Nordeste 25 Nordeste 0 1017.4 1.6 53
2019-06-08 08:00:00 20 13 Nordeste 21 Nordeste 0 1017.2 2.3 65
2019-06-08 07:00:00 19.5 11 Nordeste 25 Nordeste 0 1016.6 1.8 71
2019-06-08 06:00:00 19.2 14 Nordeste 27 Nordeste 0 1015.8 1.2 69
2019-06-08 05:00:00 18.5 12 Norte 27 Norte 0 1014.9 0.5 39
2019-06-08 04:00:00 17.9 6 Noroeste 10 Noroeste 0 1014.8 0.7 53
2019-06-08 03:00:00 18.2 5 Noroeste 10 Noroeste 0 1014.6 0.7 56
2019-06-08 02:00:00 18.7 6 Noroeste 12 Noroeste 0 1014.4 1.2 57
2019-06-08 01:00:00 19.4 6 Noroeste 10 Oeste 0 1014.1 2.1 55
2019-06-08 00:00:00 20.7 4 Noroeste 9 Noroeste 0 1013.9 2.9 53
2019-06-07 23:00:00 21.8 2 Noroeste 9 Nordeste 0 1013.2 3 52
2019-06-07 22:00:00 21.9 3 Nordeste 9 Norte 0 1012 2.8 56
2019-06-07 21:00:00 22.8 5 Nordeste 19 Este 0 1011 2.6 55
2019-06-07 20:00:00 24.1 10 Este 25 Este 0 1010.2 3.3 48
2019-06-07 19:00:00 24.8 10 Este 35 Este 0 1009.2 2.8 45
2019-06-07 18:00:00 25 13 Nordeste 48 Nordeste 0 1008.4 2.1 49
2019-06-07 17:00:00 30.8 16 Sur 42 Sur 0 1006.9 0.4 34
2019-06-07 16:00:00 32.2 10 Oeste 27 Oeste 0 1006.4 -0.3 16
2019-06-07 15:00:00 30.9 10 Oeste 34 Sudoeste 0 1006.3 -0.4 23
2019-06-07 14:00:00 29.3 11 Este 24 Este 0 1006.5 -0.2 28
2019-06-07 13:00:00 28.2 12 Sudeste 24 Sudeste 0 1006.7 0.2 36
2019-06-07 12:00:00 26.1 11 Sudeste 23 Este 0 1006.7 0.1 43
2019-06-07 11:00:00 25 6 Sudeste 17 Sur 0 1006.7 0.7 53
2019-06-07 10:00:00 23.2 6 Sur 13 Sur 0 1006.5 1 55
2019-06-07 09:00:00 20.6 6 Oeste 12 Oeste 0 1006.6 1.7 69
2019-06-07 08:00:00 18 5 Noroeste 11 Oeste 0 1006 1.1 80
2019-06-07 07:00:00 17.4 5 Oeste 9 Noroeste 0 1005.5 0.3 83
2019-06-07 06:00:00 17.7 6 Noroeste 11 Noroeste 0 1004.9 -0.4 84
2019-06-07 05:00:00 18.5 3 Norte 5 Norte 0 1004.9 -0.6 82
2019-06-07 04:00:00 18.7 2 Norte 7 Este 0 1005.2 -0.8 82
2019-06-07 03:00:00 19.2 3 Sur 10 Sudeste 0 1005.3 -0.9 80
2019-06-07 02:00:00 20.1 5 Sur 10 Este 0 1005.5 -1 78
2019-06-07 01:00:00 20.1 3 Este 14 Este 0 1006 0 79
2019-06-07 00:00:00 20.5 5 Nordeste 12 Nordeste 0 1006.2 0.3 79
2019-06-06 23:00:00 20.6 4 Nordeste 13 Nordeste 0 1006.5 0.7 77
2019-06-06 22:00:00 20.5 4 Este 13 Nordeste 0 1006 0 79
2019-06-06 21:00:00 21.1 5 Nordeste 14 Este 0 1005.9 -0.8 76
2019-06-06 20:00:00 22.6 6 Este 19 Sudeste 0 1005.8 -1.4 54
2019-06-06 19:00:00 23.3 7 Este 22 Este 0 1006 -1.8 53
2019-06-06 18:00:00 23.9 8 Sudeste 21 Sudeste 0 1006.7 -1.7 50
2019-06-06 17:00:00 24.2 11 Este 23 Este 0 1007.2 -1.6 56
2019-06-06 16:00:00 24.1 13 Este 27 Sudeste 0 1007.8 -1.2 49
2019-06-06 15:00:00 24.2 14 Este 30 Este 0 1008.4 -0.8 43
2019-06-06 14:00:00 23.8 13 Este 26 Este 0 1008.8 -0.4 43
2019-06-06 13:00:00 23.2 13 Este 27 Sudeste 0 1009 -0.3 49
2019-06-06 12:00:00 23.2 10 Este 24 Sudeste 0 1009.2 0.1 50
2019-06-06 11:00:00 22.6 9 Este 21 Este 0 1009.2 0.5 57
2019-06-06 10:00:00 22.4 7 Este 16 Este 0 1009.3 0.7 52
2019-06-06 09:00:00 20.3 6 Oeste 17 Oeste 0 1009.1 0.8 49
2019-06-06 08:00:00 16.6 10 Oeste 18 Noroeste 0 1008.7 0.5 60
2019-06-06 07:00:00 15.5 8 Oeste 15 Noroeste 0 1008.6 0.6 67
2019-06-06 06:00:00 15.6 9 Oeste 16 Oeste 0 1008.3 0.1 70
2019-06-06 05:00:00 16 6 Oeste 15 Oeste 0 1008.2 0.2 72
2019-06-06 04:00:00 16.6 5 Noroeste 13 Noroeste 0 1008 0.1 69
2019-06-06 03:00:00 17 4 Noroeste 10 Noroeste 0 1008.2 0.5 71
2019-06-06 02:00:00 17.7 4 Oeste 11 Noroeste 0 1008 1 69
2019-06-06 01:00:00 18.6 4 Noroeste 8 Oeste 0 1007.9 1.7 67
2019-06-06 00:00:00 19.1 5 Sudoeste 7 Sudoeste 0 1007.7 2.5 64
2019-06-05 23:00:00 19.7 3 Sudoeste 10 Sur 0 1007 3 66
2019-06-05 22:00:00 20.5 6 Sur 11 Sur 0 1006.2 3.1 62
2019-06-05 21:00:00 21.5 10 Sur 21 Sudoeste 0 1005.2 2.4 60
2019-06-05 20:00:00 23 13 Sudeste 24 Sur 0 1004 1.2 52
2019-06-05 19:00:00 26.9 8 Sudoeste 29 Oeste 0 1003.1 1.1 21
2019-06-05 18:00:00 27 14 Noroeste 38 Oeste 0 1002.8 2.2 19
2019-06-05 17:00:00 27.6 19 Oeste 49 Oeste 0 1002.8 2.6 17
2019-06-05 16:00:00 28.1 26 Oeste 61 Oeste 0 1002 2.3 18
2019-06-05 15:00:00 27.8 30 Oeste 55 Oeste 0 1000.6 0.6 17
2019-06-05 14:00:00 28.3 26 Oeste 51 Oeste 0 1000.2 -0.5 15
2019-06-05 13:00:00 27.7 8 Este 31 Sudoeste 0 999.7 -1.2 43
2019-06-05 12:00:00 27.2 6 Nordeste 23 Este 0 1000 -0.7 46
2019-06-05 11:00:00 25.3 10 Sudeste 20 Sur 0 1000.7 0.2 55
2019-06-05 10:00:00 22.6 6 Sudoeste 17 Sudoeste 0 1000.9 0.7 58
2019-06-05 09:00:00 20.2 8 Noroeste 18 Oeste 0 1000.7 0.2 65
2019-06-05 08:00:00 18.6 13 Oeste 18 Oeste 0 1000.5 -0.2 73
2019-06-05 07:00:00 18.1 6 Oeste 15 Oeste 0 1000.2 -0.9 79
2019-06-05 06:00:00 17.8 8 Oeste 14 Noroeste 0 1000.5 -1.3 82
2019-06-05 05:00:00 17.5 6 Noroeste 13 Noroeste 0 1000.7 -1.7 81
2019-06-05 04:00:00 17.3 5 Noroeste 11 Noroeste 0 1001.1 -1.9 75
2019-06-05 03:00:00 17.7 4 Noroeste 10 Norte 0 1001.8 -1.5 69
2019-06-05 02:00:00 19 5 Noroeste 13 Norte 0 1002.4 -1.1 74
2019-06-05 01:00:00 19.6 6 Norte 17 Nordeste 0 1003 -0.1 79
2019-06-05 00:00:00 19.7 8 Nordeste 15 Nordeste 0 1003.3 0 83
2019-06-04 23:00:00 19.6 5 Nordeste 13 Este 0 1003.5 0.1 82
2019-06-04 22:00:00 20 4 Este 12 Nordeste 0 1003.1 -0.6 80
2019-06-04 21:00:00 21 5 Nordeste 14 Este 0 1003.3 -0.7 75
2019-06-04 20:00:00 22.2 6 Este 17 Este 0 1003.4 -1.2 67
2019-06-04 19:00:00 23.1 8 Este 19 Sudeste 0 1003.7 -1.3 62
2019-06-04 18:00:00 24.1 11 Sudeste 23 Sudeste 0 1004 -1.5 62
2019-06-04 17:00:00 24.5 11 Sudeste 21 Sur 0 1004.6 -1.4 62
2019-06-04 16:00:00 25.4 12 Sudeste 23 Sudeste 0 1005 -1.7 56
2019-06-04 15:00:00 26.1 9 Sudeste 22 Sudeste 0 1005.5 -1.6 54
2019-06-04 14:00:00 25.9 9 Sudeste 19 Sudeste 0 1006 -1.1 50
2019-06-04 13:00:00 26.3 8 Sudeste 19 Sudeste 0 1006.7 -0.5 53
2019-06-04 12:00:00 25.4 9 Sudeste 19 Este 0 1007.1 0 56
2019-06-04 11:00:00 24.1 9 Sudeste 18 Sur 0 1007.1 0.1 61
2019-06-04 10:00:00 23.4 5 Este 11 Este 0 1007.2 0.2 55
2019-06-04 09:00:00 21 2 Norte 12 Noroeste 0 1007.1 0.4 67
2019-06-04 08:00:00 17.2 7 Oeste 14 Oeste 0 1007 -0.1 66
2019-06-04 07:00:00 16.1 5 Noroeste 13 Oeste 0 1007 -0.6 59
2019-06-04 06:00:00 16.3 5 Noroeste 10 Noroeste 0 1006.7 -1.6 63
2019-06-04 05:00:00 16.7 4 Noroeste 9 Oeste 0 1007.1 -2 64
2019-06-04 04:00:00 16.9 3 Noroeste 8 Noroeste 0 1007.6 -2.2 58
2019-06-04 03:00:00 17.7 4 Noroeste 7 Noroeste 0 1008.3 -1.9 57
2019-06-04 02:00:00 18.5 4 Noroeste 7 Noroeste 0 1009.1 -1.4 54
2019-06-04 01:00:00 19.8 0 Calma 6 Noroeste 0 1009.8 -0.4 52
2019-06-04 00:00:00 21 0 Calma 7 Sudeste 0 1010.2 0.1 52
2019-06-03 23:00:00 21.9 5 Este 7 Este 0 1010.5 0.2 42
2019-06-03 22:00:00 22.3 4 Este 7 Sudoeste 0 1010.2 -0.4 42
2019-06-03 21:00:00 23.3 3 Sur 8 Este 0 1010.1 -0.7 39
2019-06-03 20:00:00 24.6 5 Sur 17 Este 0 1010.3 -0.6 36
2019-06-03 19:00:00 24.8 7 Sudeste 17 Este 0 1010.6 -0.6 41
2019-06-03 18:00:00 25.7 6 Sudeste 21 Sudeste 0 1010.8 -0.6 41
2019-06-03 17:00:00 26.2 8 Sudeste 20 Este 0 1010.9 -0.7 42
2019-06-03 16:00:00 26.4 11 Sudeste 26 Sudeste 0 1011.2 -0.7 41
2019-06-03 15:00:00 28.1 13 Sur 27 Sur 0 1011.4 -0.6 32
2019-06-03 14:00:00 27.6 14 Sudeste 25 Sur 0 1011.6 0 29
2019-06-03 13:00:00 27.4 11 Sudeste 21 Este 0 1011.9 -0.2 38
2019-06-03 12:00:00 26.8 10 Sudeste 19 Sudeste 0 1012 0 47
2019-06-03 11:00:00 26 5 Sur 11 Sur 0 1011.6 -0.7 37
2019-06-03 10:00:00 23.4 4 Este 10 Oeste 0 1012.1 -0.3 49
2019-06-03 09:00:00 20.4 4 Oeste 8 Oeste 0 1012 0.1 53
2019-06-03 08:00:00 17.5 5 Noroeste 11 Noroeste 0 1012.3 0.3 56
2019-06-03 07:00:00 15.6 7 Oeste 11 Noroeste 0 1012.4 0.1 61
2019-06-03 06:00:00 15.6 5 Noroeste 8 Noroeste 0 1011.9 -0.7 61
2019-06-03 05:00:00 16.1 5 Noroeste 10 Noroeste 0 1012 -0.9 60
2019-06-03 04:00:00 16.4 6 Noroeste 9 Noroeste 0 1012.3 -1.1 57
2019-06-03 03:00:00 17.3 3 Noroeste 8 Noroeste 0 1012.6 -0.9 56
2019-06-03 02:00:00 17.9 0 Calma 6 Noroeste 0 1012.9 -0.5 54
2019-06-03 01:00:00 18.9 5 Noroeste 9 Noroeste 0 1013.4 0.5 52
2019-06-03 00:00:00 20.1 5 Sudoeste 9 Sudoeste 0 1013.5 0.8 49
2019-06-02 23:00:00 20.2 4 Sudoeste 8 Sudoeste 0 1013.4 0.9 46
2019-06-02 22:00:00 21 4 Sur 13 Sudeste 0 1012.9 0.4 48
2019-06-02 21:00:00 22.5 8 Sur 14 Sur 0 1012.7 -0.2 45
2019-06-02 20:00:00 24.1 8 Sur 21 Sur 0 1012.5 -0.5 42
2019-06-02 19:00:00 25.2 11 Sur 21 Sur 0 1012.5 -0.8 38
2019-06-02 18:00:00 26.1 12 Sur 23 Sur 0 1012.9 -0.7 36
2019-06-02 17:00:00 26.7 13 Sudeste 24 Sudeste 0 1013 -0.9 32
2019-06-02 16:00:00 27.6 12 Sudeste 23 Sudeste 0 1013.3 -1.1 28
2019-06-02 15:00:00 27.8 13 Sudeste 21 Sudeste 0 1013.6 -0.8 26
2019-06-02 14:00:00 27.5 10 Sudeste 20 Sur 0 1013.9 -0.3 29
2019-06-02 13:00:00 27.1 10 Sudeste 17 Sudeste 0 1014.4 0.4 29
2019-06-02 12:00:00 25.6 9 Sudeste 17 Sur 0 1014.4 0.6 42
2019-06-02 11:00:00 24.9 8 Sudeste 15 Sur 0 1014.2 0.3 45
2019-06-02 10:00:00 23.7 4 Sur 12 Sur 0 1014 0.2 38
2019-06-02 09:00:00 21 4 Oeste 11 Oeste 0 1013.8 0.1 39
2019-06-02 08:00:00 17.2 8 Oeste 14 Oeste 0 1013.9 -0.1 51
2019-06-02 07:00:00 15.6 7 Oeste 13 Oeste 0 1013.8 -0.7 56
2019-06-02 06:00:00 15.6 6 Oeste 14 Oeste 0 1013.7 -1.3 56
2019-06-02 05:00:00 16 7 Noroeste 14 Noroeste 0 1014 -1.3 55
2019-06-02 04:00:00 16.2 6 Oeste 12 Noroeste 0 1014.5 -0.9 56
2019-06-02 03:00:00 16.6 6 Oeste 10 Noroeste 0 1015 -0.7 57
2019-06-02 02:00:00 17 5 Noroeste 9 Noroeste 0 1015.3 -0.5 55
2019-06-02 01:00:00 17.8 3 Noroeste 7 Sudoeste 0 1015.4 0.2 58
2019-06-02 00:00:00 18.6 4 Sudoeste 7 Sudoeste 0 1015.7 0.8 58
2019-06-01 23:00:00 19.4 3 Sur 6 Sur 0 1015.8 1 62
2019-06-01 22:00:00 20.2 3 Sur 9 Sudoeste 0 1015.2 0.4 55
2019-06-01 21:00:00 21.8 7 Sur 17 Sudeste 0 1014.9 -0.2 44
2019-06-01 20:00:00 23.9 8 Sur 18 Sudeste 0 1014.8 -0.7 39
2019-06-01 19:00:00 25.2 10 Sur 19 Sudeste 0 1014.8 -1 33
2019-06-01 18:00:00 25.8 9 Sudeste 22 Sur 0 1015.1 -1 32
2019-06-01 17:00:00 26.3 11 Sur 23 Sur 0 1015.5 -1 35
2019-06-01 16:00:00 26.7 12 Sur 22 Sudeste 0 1015.8 -1.1 37
2019-06-01 15:00:00 26.7 12 Sudeste 23 Sudeste 0 1016.1 -0.9 38
2019-06-01 14:00:00 26.4 12 Sur 22 Sudeste 0 1016.5 -0.4 44
2019-06-01 13:00:00 26.1 13 Sudeste 21 Sur 0 1016.9 0.1 36
2019-06-01 12:00:00 25.7 9 Sudeste 19 Sur 0 1017 0.3 38
2019-06-01 11:00:00 25.3 7 Sur 15 Sur 0 1016.9 0.4 41
2019-06-01 10:00:00 23.9 5 Sur 10 Sur 0 1016.8 0.6 42
2019-06-01 09:00:00 20.4 4 Sudoeste 8 Oeste 0 1016.7 0.9 52
2019-06-01 08:00:00 17.4 4 Noroeste 12 Oeste 0 1016.5 0.3 59
2019-06-01 07:00:00 15.7 6 Oeste 15 Noroeste 0 1016.2 -0.4 67
2019-06-01 06:00:00 15.9 8 Noroeste 14 Oeste 0 1015.8 -1 65
2019-06-01 05:00:00 16.5 8 Oeste 15 Oeste 0 1016.2 -1.3 64
2019-06-01 04:00:00 16.5 10 Oeste 15 Oeste 0 1016.6 -1.2 64
2019-06-01 03:00:00 16.8 8 Oeste 13 Oeste 0 1016.8 -1.1 64
2019-06-01 02:00:00 17.3 4 Noroeste 10 Oeste 0 1017.5 -0.5 61
2019-06-01 01:00:00 17.9 5 Oeste 8 Oeste 0 1017.8 0.3 59
2019-06-01 00:00:00 19 0 Calma 9 Sudoeste 0 1017.9 0.6 57
2019-05-31 23:00:00 19.3 3 Sudoeste 7 Sur 0 1018 0.6 62
2019-05-31 22:00:00 20.3 5 Sur 8 Sur 0 1017.5 0 51
2019-05-31 21:00:00 21.6 5 Sur 13 Sur 0 1017.3 -0.3 48
2019-05-31 20:00:00 23.3 8 Sur 17 Sur 0 1017.4 -0.4 41
2019-05-31 19:00:00 24.1 9 Sur 21 Sur 0 1017.5 -0.7 38
2019-05-31 18:00:00 24.9 12 Sur 23 Sur 0 1017.6 -0.8 38
2019-05-31 17:00:00 25.6 14 Sur 22 Sur 0 1017.8 -0.7 43
2019-05-31 16:00:00 25.1 12 Sudeste 23 Sudeste 0 1018.2 -0.6 48
2019-05-31 15:00:00 23.9 13 Sudeste 25 Este 0 1018.4 -0.5 57
2019-05-31 14:00:00 24.5 13 Este 22 Este 0 1018.5 -0.3 51
2019-05-31 13:00:00 24.1 13 Este 20 Este 0 1018.8 -0.1 53
2019-05-31 12:00:00 24.4 8 Este 18 Sudeste 0 1018.9 0.1 48
2019-05-31 11:00:00 24.1 8 Este 17 Este 0 1018.8 -0.1 50
2019-05-31 10:00:00 22.7 4 Nordeste 9 Nordeste 0 1018.9 0.4 49
2019-05-31 09:00:00 19.6 5 Norte 9 Norte 0 1018.8 0.6 69
2019-05-31 08:00:00 15.5 4 Noroeste 8 Noroeste 0 1018.9 0.6 74
2019-05-31 07:00:00 14 5 Noroeste 13 Noroeste 0 1018.5 -0.1 76
2019-05-31 06:00:00 14.4 9 Oeste 14 Noroeste 0 1018.2 -0.9 77
2019-05-31 05:00:00 14.7 6 Noroeste 10 Noroeste 0 1018.3 -1 76
2019-05-31 04:00:00 15.1 4 Noroeste 8 Noroeste 0 1018.6 -0.7 75
2019-05-31 03:00:00 15.8 4 Noroeste 6 Noroeste 0 1019.1 -0.3 75
2019-05-31 02:00:00 16.3 2 Noroeste 7 Noroeste 0 1019.3 -0.1 73
2019-05-31 01:00:00 17.4 2 Noroeste 4 Noroeste 0 1019.3 0.5 71
2019-05-31 00:00:00 18.1 3 Norte 5 Sudoeste 0 1019.4 1 75
2019-05-30 23:00:00 18.3 2 Sudoeste 9 Sur 0 1019.4 1.3 73
2019-05-30 22:00:00 19.2 5 Sur 10 Sur 0 1018.8 0.7 69
2019-05-30 21:00:00 20.4 7 Sur 15 Sur 0 1018.4 0.2 62
2019-05-30 20:00:00 22 8 Sur 19 Sudeste 0 1018.1 -0.4 53
2019-05-30 19:00:00 22.9 12 Sur 22 Sur 0 1018.1 -0.4 45
2019-05-30 18:00:00 24.1 14 Sudeste 27 Sur 0 1018.2 -0.4 43
2019-05-30 17:00:00 25.2 13 Sur 24 Sur 0 1018.5 -0.5 39
2019-05-30 16:00:00 25.9 13 Sur 23 Sudeste 0 1018.5 -0.7 39
2019-05-30 15:00:00 25.6 12 Sur 23 Sur 0 1018.6 -0.7 35
2019-05-30 14:00:00 25.8 13 Sudeste 21 Sur 0 1019 -0.4 35
2019-05-30 13:00:00 25.1 11 Sudeste 22 Sudeste 0 1019.2 -0.2 37
2019-05-30 12:00:00 24.6 9 Sudeste 20 Este 0 1019.3 -0.3 39
2019-05-30 11:00:00 23.9 5 Sudeste 14 Este 0 1019.4 0.4 41
2019-05-30 10:00:00 21.5 4 Sudeste 10 Norte 0 1019.4 0.8 49
2019-05-30 09:00:00 19.1 5 Norte 12 Noroeste 0 1019.6 1.5 50
2019-05-30 08:00:00 15.3 6 Noroeste 11 Noroeste 0 1019 1.1 60
2019-05-30 07:00:00 14 5 Noroeste 14 Oeste 0 1018.6 0.6 62
2019-05-30 06:00:00 14.2 8 Oeste 18 Noroeste 0 1018.1 -0.1 63
2019-05-30 05:00:00 14.6 9 Oeste 15 Oeste 0 1017.9 -0.3 63
2019-05-30 04:00:00 14.9 10 Oeste 16 Oeste 0 1018 -0.1 62
2019-05-30 03:00:00 15.3 6 Oeste 13 Oeste 0 1018.2 0.1 63
2019-05-30 02:00:00 15.8 10 Oeste 15 Noroeste 0 1018.2 0.6 62
2019-05-30 01:00:00 16 7 Oeste 12 Oeste 0 1018.1 1.3 60
2019-05-30 00:00:00 16.7 5 Noroeste 8 Noroeste 0 1018.1 2 63
2019-05-29 23:00:00 17.3 5 Sudoeste 8 Sudoeste 0 1017.6 2.1 61
2019-05-29 22:00:00 18.1 3 Sur 12 Sur 0 1016.8 1.8 60
2019-05-29 21:00:00 19.4 8 Sur 17 Sur 0 1016.1 1.2 55
2019-05-29 20:00:00 21.2 9 Sur 22 Sudeste 0 1015.5 0.5 45
2019-05-29 19:00:00 21.8 11 Sur 24 Sudeste 0 1015 0 41
2019-05-29 18:00:00 22.9 12 Sur 24 Sur 0 1014.9 -0.2 38
2019-05-29 17:00:00 24.2 10 Sur 26 Sur 0 1015 -0.3 33
2019-05-29 16:00:00 23.9 13 Sur 26 Sudeste 0 1015 0.1 37
2019-05-29 15:00:00 24.4 13 Sudeste 29 Sudeste 0 1015.1 0.2 35
2019-05-29 14:00:00 24.8 14 Sudeste 27 Este 0 1015.3 0.3 36
2019-05-29 13:00:00 24.3 14 Norte 30 Norte 0 1014.9 -0.1 24
2019-05-29 12:00:00 23.5 15 Norte 38 Norte 0 1014.9 0.1 25
2019-05-29 11:00:00 22.2 14 Norte 38 Norte 0 1015 0.4 28
2019-05-29 10:00:00 20.6 15 Noroeste 31 Noroeste 0 1015 0.9 30
2019-05-29 09:00:00 19 14 Noroeste 31 Oeste 0 1014.8 1.1 33
2019-05-29 08:00:00 17.3 16 Noroeste 35 Noroeste 0 1014.6 1.2 37
2019-05-29 07:00:00 15.6 10 Noroeste 20 Norte 0 1014.1 0.9 40
2019-05-29 06:00:00 15.4 5 Noroeste 16 Nordeste 0 1013.7 1.1 41
2019-05-29 05:00:00 15.1 6 Norte 10 Norte 0 1013.4 0.7 44
2019-05-29 04:00:00 16 4 Norte 18 Oeste 0 1013.2 0.7 50
2019-05-29 03:00:00 17.1 12 Oeste 17 Oeste 0 1012.6 0.5 47
2019-05-29 02:00:00 16.9 6 Noroeste 12 Noroeste 0 1012.7 1 60
2019-05-29 01:00:00 17.1 6 Oeste 10 Sudoeste 0 1012.5 1.5 69
2019-05-29 00:00:00 17.7 3 Nordeste 8 Nordeste 0 1012.1 2 65
2019-05-28 23:00:00 17.7 4 Sudoeste 7 Sudoeste 0 1011.7 2.2 66
2019-05-28 22:00:00 18.4 3 Sudoeste 10 Sur 0 1011 2.4 64
2019-05-28 21:00:00 19.6 6 Sur 13 Sur 0 1010.1 1.7 59
2019-05-28 20:00:00 21.1 8 Sur 15 Sudeste 0 1009.5 1.2 54
2019-05-28 19:00:00 21.5 9 Sudeste 18 Este 0 1008.6 0.3 48
2019-05-28 18:00:00 22.6 8 Sudeste 17 Sudeste 0 1008.4 0.2 47
2019-05-28 17:00:00 23.4 8 Sur 18 Este 0 1008.3 0 44
2019-05-28 16:00:00 23.9 10 Sudeste 22 Sudeste 0 1008.3 -0.2 42
2019-05-28 15:00:00 23.4 15 Sudeste 27 Este 0 1008.2 -0.2 45
2019-05-28 14:00:00 25.1 13 Sur 26 Sur 0 1008.3 0 46
2019-05-28 13:00:00 25.2 13 Sur 25 Sur 0 1008.5 0.3 47
2019-05-28 12:00:00 24.2 13 Sur 26 Sudeste 0 1008.4 0.5 50
2019-05-28 11:00:00 23.6 5 Noroeste 15 Oeste 0 1008.3 0.7 32
2019-05-28 10:00:00 22.2 6 Noroeste 17 Oeste 0 1008.2 1.4 36
2019-05-28 09:00:00 20.7 11 Oeste 19 Oeste 0 1007.9 1.4 42
2019-05-28 08:00:00 18.5 9 Noroeste 19 Oeste 0 1007.6 1.5 52
2019-05-28 07:00:00 18.2 9 Oeste 17 Noroeste 0 1006.8 0.5 57
2019-05-28 06:00:00 18.3 6 Oeste 14 Noroeste 0 1006.5 -0.1 58
2019-05-28 05:00:00 19.2 8 Norte 25 Oeste 0 1006.1 -0.7 55
2019-05-28 04:00:00 20 13 Oeste 22 Noroeste 0 1006.3 -0.9 51
2019-05-28 03:00:00 19.3 5 Noroeste 13 Oeste 0 1006.6 -0.8 62
2019-05-28 02:00:00 18.9 6 Noroeste 13 Noroeste 0 1006.8 -0.2 69
2019-05-28 01:00:00 18.6 4 Oeste 11 Noroeste 0 1007.2 1 71
2019-05-28 00:00:00 18.8 5 Noroeste 12 Oeste 0 1007.4 1.5 73
2019-05-27 23:00:00 18.8 4 Oeste 9 Oeste 0 1007 1.7 79
2019-05-27 22:00:00 19.3 3 Sur 12 Sur 0 1006.2 1 76
2019-05-27 21:00:00 20.5 8 Sur 12 Sur 0 1005.9 0.3 68
2019-05-27 20:00:00 22.2 6 Sur 13 Este 0 1005.3 -0.3 52
2019-05-27 19:00:00 23 8 Sur 17 Sur 0 1005.2 -0.9 49
2019-05-27 18:00:00 23.4 9 Sudeste 20 Sudeste 0 1005.6 -0.9 46
2019-05-27 17:00:00 24.1 10 Sudeste 21 Este 0 1005.6 -1.2 41
2019-05-27 16:00:00 23.6 10 Sudeste 24 Este 0 1006.1 -1 45
2019-05-27 15:00:00 24.8 11 Sudeste 24 Sudeste 0 1006.5 -0.6 48
2019-05-27 14:00:00 24.5 11 Sudeste 26 Sudeste 0 1006.8 -0.3 44
2019-05-27 13:00:00 25 12 Sudeste 22 Sudeste 0 1007.1 -0.4 41
2019-05-27 12:00:00 24.6 10 Sudeste 19 Sudeste 0 1007.1 -0.1 39
2019-05-27 11:00:00 24.8 8 Sudeste 20 Sur 0 1007.1 -0.2 36
2019-05-27 10:00:00 22.8 3 Noroeste 14 Noroeste 0 1007.5 0.1 38
2019-05-27 09:00:00 19.6 10 Oeste 15 Oeste 0 1007.2 0 47
2019-05-27 08:00:00 15.9 8 Oeste 18 Oeste 0 1007.3 -0.3 59
2019-05-27 07:00:00 15.1 10 Oeste 18 Noroeste 0 1007.4 -0.7 63
2019-05-27 06:00:00 15.8 12 Oeste 19 Oeste 0 1007.2 -1.3 60
2019-05-27 05:00:00 15.5 8 Noroeste 14 Noroeste 0 1007.6 -1.5 63
2019-05-27 04:00:00 15.4 8 Noroeste 19 Oeste 0 1008.1 -1.5 69
2019-05-27 03:00:00 15.9 8 Oeste 19 Noroeste 0 1008.5 -1.3 71
2019-05-27 02:00:00 16.3 7 Noroeste 15 Noroeste 0 1009.1 -0.8 70
2019-05-27 01:00:00 16.4 10 Oeste 17 Noroeste 0 1009.6 0.2 73
2019-05-27 00:00:00 17.1 2 Noroeste 6 Sudoeste 0 1009.8 0.6 71
2019-05-26 23:00:00 17.6 0 Calma 8 Sur 0 1009.9 0.7 68
2019-05-26 22:00:00 18.4 4 Sur 12 Sudoeste 0 1009.4 0 67
2019-05-26 21:00:00 19.8 9 Sur 15 Sur 0 1009.2 -0.4 63
2019-05-26 20:00:00 20.9 6 Sur 12 Sur 0 1009.2 -0.5 53
2019-05-26 19:00:00 21.2 8 Sur 15 Sur 0 1009.4 -0.6 57
2019-05-26 18:00:00 22.5 9 Sur 17 Este 0 1009.6 -0.7 46
2019-05-26 17:00:00 23.8 10 Sudeste 21 Sudeste 0 1009.7 -0.9 40
2019-05-26 16:00:00 24.7 9 Sudeste 20 Sur 0 1010 -0.8 36
2019-05-26 15:00:00 24.3 10 Sudeste 23 Sudeste 0 1010.3 -0.6 38
2019-05-26 14:00:00 24.7 10 Sur 22 Sur 0 1010.6 -0.2 38
2019-05-26 13:00:00 23.4 11 Sudeste 25 Este 0 1010.8 -0.3 38
2019-05-26 12:00:00 24 12 Este 22 Sudeste 0 1010.9 -0.4 38
2019-05-26 11:00:00 22.8 7 Oeste 17 Sudoeste 0 1010.8 -0.7 38
2019-05-26 10:00:00 20.2 10 Oeste 22 Noroeste 0 1011.1 -0.1 42
2019-05-26 09:00:00 18.3 13 Oeste 24 Oeste 0 1011.3 0.4 49
2019-05-26 08:00:00 16.1 13 Oeste 22 Oeste 0 1011.5 0.5 56
2019-05-26 07:00:00 15 11 Oeste 22 Oeste 0 1011.2 -0.1 61
2019-05-26 06:00:00 15.4 11 Oeste 17 Oeste 0 1010.9 -0.5 61
2019-05-26 05:00:00 15.9 10 Oeste 17 Oeste 0 1011 -0.6 61
2019-05-26 04:00:00 15.6 9 Oeste 15 Noroeste 0 1011.3 -0.8 69
2019-05-26 03:00:00 16.2 6 Oeste 14 Oeste 0 1011.4 -0.7 70
2019-05-26 02:00:00 16.4 6 Oeste 11 Oeste 0 1011.6 -0.6 75
2019-05-26 01:00:00 16.9 5 Oeste 12 Noroeste 0 1012.1 0.2 74
2019-05-26 00:00:00 17.1 4 Oeste 7 Sudoeste 0 1012.1 0.6 78
2019-05-25 23:00:00 17.8 3 Sudoeste 9 Sur 0 1012.2 1.2 73
2019-05-25 22:00:00 18.8 6 Sudoeste 12 Sudoeste 0 1011.9 1.2 69
2019-05-25 21:00:00 19.5 5 Sur 12 Sudoeste 0 1011.5 0.9 64
2019-05-25 20:00:00 20.2 8 Sudoeste 13 Sudoeste 0 1011 0.6 58
2019-05-25 19:00:00 21 7 Sur 14 Sur 0 1010.7 0.3 50
2019-05-25 18:00:00 22.1 10 Sur 19 Sur 0 1010.6 -0.3 51
2019-05-25 17:00:00 23.4 9 Sudeste 17 Este 0 1010.4 -0.8 46
2019-05-25 16:00:00 23.9 9 Sudeste 21 Sudeste 0 1010.4 -1.1 44
2019-05-25 15:00:00 23.5 7 Sudeste 14 Este 0 1010.9 -0.7 44
2019-05-25 14:00:00 22.1 6 Nordeste 24 Sudeste 0 1011.2 -0.1 44
2019-05-25 13:00:00 21.6 9 Norte 26 Nordeste 0 1011.5 0.5 44
2019-05-25 12:00:00 20 8 Norte 18 Norte 0 1011.6 1 49
2019-05-25 11:00:00 19 9 Norte 26 Norte 0 1011.3 1.2 52
2019-05-25 10:00:00 19 15 Norte 26 Nordeste 0 1011 1.3 51
2019-05-25 09:00:00 17.4 10 Nordeste 17 Nordeste 0 1010.6 1.2 60
2019-05-25 08:00:00 16.5 7 Nordeste 16 Nordeste 0 1010.1 0.9 64
2019-05-25 07:00:00 16.1 3 Norte 9 Norte 0 1009.7 0.5 72
2019-05-25 06:00:00 16.1 3 Sudoeste 20 Nordeste 0 1009.4 0.3 82
2019-05-25 05:00:00 16.4 9 Norte 17 Norte 0 1009.2 -0.2 68
2019-05-25 04:00:00 15.5 2 Sur 9 Oeste 0 1009.2 -0.5 86
2019-05-25 03:00:00 15.6 4 Noroeste 12 Oeste 0 1009.1 -0.8 84
2019-05-25 02:00:00 16.2 8 Oeste 13 Oeste 0 1009.4 -0.5 92
2019-05-25 01:00:00 16.3 4 Noroeste 9 Oeste 0.4 1009.7 0.3 93
2019-05-25 00:00:00 16.2 4 Noroeste 6 Oeste 0.8 1009.9 0.8 91
2019-05-24 23:00:00 16.3 3 Sudoeste 9 Noroeste 1 1009.9 0.9 90
2019-05-24 22:00:00 16.3 5 Sudoeste 9 Sudoeste 0.4 1009.4 0.2 87
2019-05-24 21:00:00 16.9 5 Sudoeste 9 Sudoeste 0 1009.1 -0.3 83
2019-05-24 20:00:00 17.4 4 Sur 11 Sudoeste 0 1009 -0.5 81
2019-05-24 19:00:00 17.7 7 Sudoeste 13 Sur 0.2 1009.2 -0.6 81
2019-05-24 18:00:00 18.5 4 Sudeste 13 Sudeste 0 1009.4 -0.9 69
2019-05-24 17:00:00 18.2 5 Sudeste 11 Este 0 1009.5 -1.2 76
2019-05-24 16:00:00 18 5 Este 13 Este 0.2 1009.8 -0.4 80
2019-05-24 15:00:00 17.5 3 Este 17 Este 0.8 1010.3 0.5 82
2019-05-24 14:00:00 16.9 7 Norte 15 Norte 2.2 1010.7 0.6 84
2019-05-24 13:00:00 17 3 Este 21 Este 0.4 1010.2 0.7 83
2019-05-24 12:00:00 17.6 6 Este 18 Este 2.2 1009.8 1.1 91
2019-05-24 11:00:00 17.6 4 Nordeste 17 Nordeste 1 1010.1 1.6 87
2019-05-24 10:00:00 17.4 5 Nordeste 13 Sudeste 0.6 1009.5 0.8 84
2019-05-24 09:00:00 18 4 Este 10 Este 0.2 1008.7 0.4 80
2019-05-24 08:00:00 17.8 2 Nordeste 8 Norte 0 1008.5 0.3 80
2019-05-24 07:00:00 17.7 3 Noroeste 14 Nordeste 0.6 1008.7 0.6 83
2019-05-24 06:00:00 18.4 9 Norte 21 Norte 0 1008.3 -0.4 74
2019-05-24 05:00:00 18.5 10 Nordeste 21 Nordeste 0 1008.2 -0.4 75
2019-05-24 04:00:00 18.7 9 Nordeste 28 Nordeste 0 1008.1 -1.2 74
2019-05-24 03:00:00 19 11 Nordeste 18 Nordeste 0 1008.7 -0.6 73
2019-05-24 02:00:00 18.9 7 Nordeste 15 Nordeste 0 1008.6 -0.7 78
2019-05-24 01:00:00 19.2 6 Norte 13 Sudeste 0 1009.3 0.2 74
2019-05-24 00:00:00 18.9 4 Nordeste 12 Nordeste 0 1009.3 0.2 80
2019-05-23 23:00:00 18.9 4 Nordeste 10 Este 0 1009.3 0.3 80
2019-05-23 22:00:00 19.4 5 Nordeste 10 Este 0 1009.1 -0.2 76
2019-05-23 21:00:00 20.6 4 Este 11 Este 0 1009.1 -0.4 68
2019-05-23 20:00:00 20.9 4 Nordeste 13 Este 0 1009 -0.9 60
2019-05-23 19:00:00 22.3 5 Este 14 Sudeste 0 1009.3 -0.9 52
2019-05-23 18:00:00 22.3 9 Este 17 Sudeste 0 1009.5 -1.1 48
2019-05-23 17:00:00 22.6 10 Sudeste 17 Sudeste 0 1009.9 -1 54
2019-05-23 16:00:00 22.9 8 Sudeste 21 Sudeste 0 1010.2 -0.9 58
2019-05-23 15:00:00 23.1 12 Sudeste 21 Este 0 1010.6 -0.9 55
2019-05-23 14:00:00 25.2 9 Sudeste 20 Este 0 1010.9 -0.8 47
2019-05-23 13:00:00 24.9 11 Sudeste 21 Sudeste 0 1011.1 -0.8 46
2019-05-23 12:00:00 24.6 10 Sudeste 21 Este 0 1011.5 -0.3 46
2019-05-23 11:00:00 24 6 Este 13 Este 0 1011.7 0 53
2019-05-23 10:00:00 21.9 5 Sudeste 10 Este 0 1011.9 0.3 61
2019-05-23 09:00:00 19.1 4 Sudeste 8 Sudeste 0 1011.8 0.3 72
2019-05-23 08:00:00 15.5 4 Noroeste 7 Noroeste 0 1011.7 0.1 79
2019-05-23 07:00:00 14.7 4 Oeste 8 Oeste 0 1011.6 0 80
2019-05-23 06:00:00 15.1 5 Noroeste 8 Noroeste 0 1011.5 -0.2 75
2019-05-23 05:00:00 15.5 3 Noroeste 5 Noroeste 0 1011.6 -0.4 68
2019-05-23 04:00:00 15.5 2 Norte 7 Noroeste 0 1011.6 -1.1 69
2019-05-23 03:00:00 15.9 5 Oeste 8 Oeste 0 1011.7 -1.2 75
2019-05-23 02:00:00 16.2 4 Noroeste 8 Oeste 0 1012 -1 73
2019-05-23 01:00:00 16.6 5 Noroeste 8 Oeste 0 1012.7 0.3 72
2019-05-23 00:00:00 17.4 4 Noroeste 8 Noroeste 0 1012.9 0.6 76
2019-05-22 23:00:00 18.5 3 Nordeste 5 Norte 0 1013 1 69
2019-05-22 22:00:00 18.5 0 Calma 8 Sudeste 0 1012.4 0.6 74
2019-05-22 21:00:00 19.3 6 Este 15 Este 0 1012.3 0.4 71
2019-05-22 20:00:00 20.2 10 Este 16 Este 0 1012 0.1 70
2019-05-22 19:00:00 21.5 7 Sudeste 17 Este 0 1011.8 -0.3 59
2019-05-22 18:00:00 22.3 9 Sudeste 20 Sudeste 0 1011.9 -0.6 59
2019-05-22 17:00:00 22.3 9 Este 21 Este 0 1011.9 -0.8 61
2019-05-22 16:00:00 22.5 14 Sudeste 22 Este 0 1012.1 -0.9 59
2019-05-22 15:00:00 22.5 13 Este 25 Sudeste 0 1012.5 -0.6 57
2019-05-22 14:00:00 22.5 13 Sudeste 23 Este 0 1012.7 -0.3 56
2019-05-22 13:00:00 22.1 10 Sudeste 20 Este 0 1013 0.1 61
2019-05-22 12:00:00 22.1 8 Sudeste 19 Sudeste 0 1013.1 0.5 62
2019-05-22 11:00:00 21.5 10 Sudeste 23 Sudeste 0 1013 0.7 64
2019-05-22 10:00:00 19.9 7 Norte 13 Nordeste 0 1012.9 0.8 69
2019-05-22 09:00:00 16.5 5 Noroeste 12 Noroeste 0 1012.6 0.8 74
2019-05-22 08:00:00 14 6 Oeste 12 Noroeste 0 1012.3 0.7 79
2019-05-22 07:00:00 13.2 8 Noroeste 15 Noroeste 0 1012.1 0.7 81
2019-05-22 06:00:00 13.6 9 Oeste 14 Oeste 0 1011.8 0.7 84
2019-05-22 05:00:00 14.1 5 Noroeste 11 Oeste 0 1011.6 0.9 83
2019-05-22 04:00:00 14.7 4 Noroeste 10 Norte 0 1011.4 0.6 85
2019-05-22 03:00:00 15.1 6 Noroeste 21 Noroeste 0 1011.1 0 84
2019-05-22 02:00:00 15.2 9 Oeste 17 Oeste 0 1010.7 -0.5 86
2019-05-22 01:00:00 15.4 6 Noroeste 13 Noroeste 0 1010.8 -0.2 88
2019-05-22 00:00:00 16.2 5 Noroeste 10 Sur 0 1011.1 0.6 88